This is the latest recevied weather packets stored in our database for station/object EMGATE. If no packets are shown the sender has not sent any weather packets the latest 1 day(s).
| Time | Temp. | Humidity | Pressure | Rain* | Wind** | Luminosity | Snow |
|---|---|---|---|---|---|---|---|
| 1777985353 | 11.67° C | 74% | 1000.6 hPa | 0 mm | 0 m/s | - | - |
| 1777984453 | 10.56° C | 75% | 1000.6 hPa | 0 mm | 0 m/s | - | - |
| 1777983553 | 9.44° C | 78% | 1000.7 hPa | 0 mm | 0 m/s | - | - |
| 1777982653 | 8.33° C | 81% | 1000.7 hPa | 0 mm | 0 m/s | - | - |
| 1777981753 | 7.22° C | 83% | 1000.6 hPa | 0 mm | 0.45 m/s, 1° | - | - |
| 1777980853 | 6.67° C | 85% | 1000.9 hPa | 0 mm | 0 m/s | - | - |
| 1777980004 | 6.11° C | 87% | 1001.1 hPa | 0 mm | 0 m/s | - | - |
| 1777979953 | 6.11° C | 87% | 1001.1 hPa | 0 mm | 0 m/s | - | - |
| 1777979053 | 5.56° C | 88% | 1001.1 hPa | 0 mm | 0.45 m/s, 1° | - | - |
| 1777978154 | 5° C | 88% | 1001.3 hPa | 0 mm | 0 m/s | - | - |
| 1777977253 | 4.44° C | 88% | 1001 hPa | 0 mm | 0 m/s | - | - |
| 1777976354 | 3.89° C | 88% | 1000.8 hPa | 0 mm | 0 m/s | - | - |
| 1777975454 | 3.89° C | 87% | 1001 hPa | 0 mm | 0 m/s | - | - |
| 1777974554 | 3.89° C | 87% | 1001 hPa | 0 mm | 0 m/s | - | - |
| 1777973654 | 3.89° C | 87% | 1001.3 hPa | 0 mm | 0.45 m/s, 1° | - | - |
| 1777972754 | 4.44° C | 87% | 1001.1 hPa | 0 mm | 0.45 m/s, 18° | - | - |
| 1777971854 | 4.44° C | 87% | 1001.2 hPa | 0 mm | 0.45 m/s, 359° | - | - |
| 1777970954 | 4.44° C | 87% | 1001.2 hPa | 0 mm | 0 m/s | - | - |
| 1777970054 | 5° C | 86% | 1001.3 hPa | 0 mm | 0.45 m/s, 359° | - | - |
| 1777969154 | 5° C | 86% | 1001.4 hPa | 0 mm | 0.45 m/s, 50° | - | - |
| 1777968254 | 5° C | 86% | 1001.5 hPa | 0 mm | 0 m/s | - | - |
| 1777967354 | 5° C | 85% | 1001.6 hPa | 0 mm | 0 m/s | - | - |
| 1777966454 | 5.56° C | 85% | 1001.5 hPa | 0 mm | 0.45 m/s, 41° | - | - |
| 1777965554 | 5.56° C | 85% | 1001.6 hPa | 0 mm | 0 m/s | - | - |
* Rain latest hour (hover to see other rain measurements)
** Current wind speed in m/s (hover to see current wind gust speed)